sensor_id;sensor_type;location;lat;lon;timestamp;P1;durP1;ratioP1;P2;durP2;ratioP2
56141;SDS011;42018;48.588;10.836;2023-05-10T00:01:41;3.33;;;1.58;;
56141;SDS011;42018;48.588;10.836;2023-05-10T00:04:26;3.67;;;1.48;;
56141;SDS011;42018;48.588;10.836;2023-05-10T00:07:12;2.60;;;1.40;;
56141;SDS011;42018;48.588;10.836;2023-05-10T00:09:57;3.15;;;1.50;;
56141;SDS011;42018;48.588;10.836;2023-05-10T00:12:43;3.38;;;1.70;;
56141;SDS011;42018;48.588;10.836;2023-05-10T00:15:28;3.08;;;1.60;;
56141;SDS011;42018;48.588;10.836;2023-05-10T00:18:15;3.70;;;1.70;;
56141;SDS011;42018;48.588;10.836;2023-05-10T00:21:00;5.40;;;1.90;;
56141;SDS011;42018;48.588;10.836;2023-05-10T00:23:46;5.47;;;1.83;;
56141;SDS011;42018;48.588;10.836;2023-05-10T00:26:31;3.30;;;1.80;;
56141;SDS011;42018;48.588;10.836;2023-05-10T00:29:16;3.63;;;1.70;;
56141;SDS011;42018;48.588;10.836;2023-05-10T00:32:02;3.38;;;1.77;;
56141;SDS011;42018;48.588;10.836;2023-05-10T00:34:47;3.17;;;1.77;;
56141;SDS011;42018;48.588;10.836;2023-05-10T00:37:33;3.50;;;1.60;;
56141;SDS011;42018;48.588;10.836;2023-05-10T00:40:18;4.00;;;1.90;;
56141;SDS011;42018;48.588;10.836;2023-05-10T00:43:04;3.00;;;1.50;;
56141;SDS011;42018;48.588;10.836;2023-05-10T00:45:49;2.75;;;1.60;;
56141;SDS011;42018;48.588;10.836;2023-05-10T00:48:35;2.80;;;1.40;;
56141;SDS011;42018;48.588;10.836;2023-05-10T00:51:21;1.90;;;1.30;;
56141;SDS011;42018;48.588;10.836;2023-05-10T00:54:07;3.63;;;1.67;;
56141;SDS011;42018;48.588;10.836;2023-05-10T00:56:52;3.33;;;1.42;;
56141;SDS011;42018;48.588;10.836;2023-05-10T00:59:37;2.30;;;1.30;;
56141;SDS011;42018;48.588;10.836;2023-05-10T01:02:23;2.60;;;1.40;;
56141;SDS011;42018;48.588;10.836;2023-05-10T01:05:09;3.25;;;1.70;;
56141;SDS011;42018;48.588;10.836;2023-05-10T01:07:54;2.53;;;1.42;;
56141;SDS011;42018;48.588;10.836;2023-05-10T01:10:41;2.70;;;1.42;;
56141;SDS011;42018;48.588;10.836;2023-05-10T01:13:30;2.95;;;1.33;;
56141;SDS011;42018;48.588;10.836;2023-05-10T01:16:27;2.88;;;1.42;;
56141;SDS011;42018;48.588;10.836;2023-05-10T01:19:24;2.67;;;1.20;;
56141;SDS011;42018;48.588;10.836;2023-05-10T01:34:27;2.75;;;1.20;;
56141;SDS011;42018;48.588;10.836;2023-05-10T01:41:39;2.28;;;1.20;;
56141;SDS011;42018;48.588;10.836;2023-05-10T01:44:38;2.10;;;1.27;;
56141;SDS011;42018;48.588;10.836;2023-05-10T01:47:42;2.13;;;1.30;;
56141;SDS011;42018;48.588;10.836;2023-05-10T01:50:30;1.73;;;1.10;;
56141;SDS011;42018;48.588;10.836;2023-05-10T01:53:21;2.55;;;1.40;;
56141;SDS011;42018;48.588;10.836;2023-05-10T01:56:08;2.47;;;1.35;;
56141;SDS011;42018;48.588;10.836;2023-05-10T02:17:37;3.80;;;1.50;;
56141;SDS011;42018;48.588;10.836;2023-05-10T02:20:24;2.20;;;1.20;;
56141;SDS011;42018;48.588;10.836;2023-05-10T02:30:29;3.35;;;1.50;;
56141;SDS011;42018;48.588;10.836;2023-05-10T02:36:48;2.63;;;1.40;;
56141;SDS011;42018;48.588;10.836;2023-05-10T02:39:36;2.72;;;1.52;;
56141;SDS011;42018;48.588;10.836;2023-05-10T02:42:27;2.88;;;1.40;;
56141;SDS011;42018;48.588;10.836;2023-05-10T02:45:17;2.58;;;1.30;;
56141;SDS011;42018;48.588;10.836;2023-05-10T02:48:04;3.38;;;1.50;;
56141;SDS011;42018;48.588;10.836;2023-05-10T02:50:52;2.70;;;1.48;;
56141;SDS011;42018;48.588;10.836;2023-05-10T02:53:51;3.55;;;1.40;;
56141;SDS011;42018;48.588;10.836;2023-05-10T02:56:44;2.28;;;1.40;;
56141;SDS011;42018;48.588;10.836;2023-05-10T02:59:33;2.22;;;1.40;;
56141;SDS011;42018;48.588;10.836;2023-05-10T03:02:18;3.60;;;1.52;;
56141;SDS011;42018;48.588;10.836;2023-05-10T03:05:05;3.20;;;1.70;;
56141;SDS011;42018;48.588;10.836;2023-05-10T03:07:50;3.20;;;1.70;;
56141;SDS011;42018;48.588;10.836;2023-05-10T03:10:47;3.00;;;1.60;;
56141;SDS011;42018;48.588;10.836;2023-05-10T03:18:15;3.78;;;1.50;;
56141;SDS011;42018;48.588;10.836;2023-05-10T03:21:02;3.05;;;1.48;;
56141;SDS011;42018;48.588;10.836;2023-05-10T03:23:52;2.67;;;1.35;;
56141;SDS011;42018;48.588;10.836;2023-05-10T03:27:11;2.73;;;1.37;;
56141;SDS011;42018;48.588;10.836;2023-05-10T03:29:59;2.17;;;1.25;;
56141;SDS011;42018;48.588;10.836;2023-05-10T03:32:47;2.53;;;1.10;;
56141;SDS011;42018;48.588;10.836;2023-05-10T03:35:33;1.60;;;1.10;;
56141;SDS011;42018;48.588;10.836;2023-05-10T03:38:18;1.73;;;1.00;;
56141;SDS011;42018;48.588;10.836;2023-05-10T03:44:50;1.67;;;0.80;;
56141;SDS011;42018;48.588;10.836;2023-05-10T03:47:37;0.52;;;0.52;;
56141;SDS011;42018;48.588;10.836;2023-05-10T03:50:27;0.80;;;0.70;;
56141;SDS011;42018;48.588;10.836;2023-05-10T03:53:12;0.88;;;0.60;;
56141;SDS011;42018;48.588;10.836;2023-05-10T04:11:09;0.50;;;0.50;;
56141;SDS011;42018;48.588;10.836;2023-05-10T04:13:56;1.55;;;0.50;;
56141;SDS011;42018;48.588;10.836;2023-05-10T05:44:50;2.10;;;1.10;;
56141;SDS011;42018;48.588;10.836;2023-05-10T05:47:36;2.03;;;1.10;;
56141;SDS011;42018;48.588;10.836;2023-05-10T05:50:21;2.13;;;1.15;;
56141;SDS011;42018;48.588;10.836;2023-05-10T05:53:06;2.40;;;1.10;;
56141;SDS011;42018;48.588;10.836;2023-05-10T05:55:52;1.65;;;1.02;;
56141;SDS011;42018;48.588;10.836;2023-05-10T05:58:42;2.53;;;1.25;;
56141;SDS011;42018;48.588;10.836;2023-05-10T06:01:28;3.08;;;1.30;;
56141;SDS011;42018;48.588;10.836;2023-05-10T06:04:14;3.08;;;1.30;;
56141;SDS011;42018;48.588;10.836;2023-05-10T06:06:59;2.80;;;1.30;;
56141;SDS011;42018;48.588;10.836;2023-05-10T06:09:45;3.38;;;1.17;;
56141;SDS011;42018;48.588;10.836;2023-05-10T06:12:30;3.70;;;1.10;;
56141;SDS011;42018;48.588;10.836;2023-05-10T06:15:15;2.03;;;1.10;;
56141;SDS011;42018;48.588;10.836;2023-05-10T06:18:01;2.10;;;1.10;;
56141;SDS011;42018;48.588;10.836;2023-05-10T06:20:47;2.28;;;1.10;;
56141;SDS011;42018;48.588;10.836;2023-05-10T06:23:32;1.45;;;1.00;;
56141;SDS011;42018;48.588;10.836;2023-05-10T06:26:17;2.20;;;1.10;;
56141;SDS011;42018;48.588;10.836;2023-05-10T06:29:03;2.38;;;1.20;;
56141;SDS011;42018;48.588;10.836;2023-05-10T06:31:48;2.03;;;1.10;;
56141;SDS011;42018;48.588;10.836;2023-05-10T06:34:33;1.52;;;1.00;;
56141;SDS011;42018;48.588;10.836;2023-05-10T06:37:19;1.40;;;0.98;;
56141;SDS011;42018;48.588;10.836;2023-05-10T06:40:05;2.17;;;1.00;;
56141;SDS011;42018;48.588;10.836;2023-05-10T06:42:51;2.30;;;1.20;;
56141;SDS011;42018;48.588;10.836;2023-05-10T06:48:46;1.60;;;1.08;;
56141;SDS011;42018;48.588;10.836;2023-05-10T06:51:31;2.15;;;1.17;;
56141;SDS011;42018;48.588;10.836;2023-05-10T06:54:17;2.70;;;1.00;;
56141;SDS011;42018;48.588;10.836;2023-05-10T06:57:03;1.48;;;1.00;;
56141;SDS011;42018;48.588;10.836;2023-05-10T06:59:48;3.65;;;1.10;;
56141;SDS011;42018;48.588;10.836;2023-05-10T07:02:34;2.65;;;1.20;;
56141;SDS011;42018;48.588;10.836;2023-05-10T07:05:19;4.15;;;1.38;;
56141;SDS011;42018;48.588;10.836;2023-05-10T07:08:05;2.72;;;1.23;;
56141;SDS011;42018;48.588;10.836;2023-05-10T07:10:50;2.55;;;1.10;;
56141;SDS011;42018;48.588;10.836;2023-05-10T07:13:35;3.65;;;1.20;;
56141;SDS011;42018;48.588;10.836;2023-05-10T07:16:21;3.15;;;1.10;;
56141;SDS011;42018;48.588;10.836;2023-05-10T07:19:06;2.97;;;1.20;;
56141;SDS011;42018;48.588;10.836;2023-05-10T07:21:52;2.83;;;1.20;;
56141;SDS011;42018;48.588;10.836;2023-05-10T07:24:41;2.60;;;1.13;;
56141;SDS011;42018;48.588;10.836;2023-05-10T07:27:27;3.83;;;1.15;;
56141;SDS011;42018;48.588;10.836;2023-05-10T07:30:14;2.63;;;1.00;;
56141;SDS011;42018;48.588;10.836;2023-05-10T07:33:11;2.13;;;1.10;;
56141;SDS011;42018;48.588;10.836;2023-05-10T07:36:00;4.82;;;1.40;;
56141;SDS011;42018;48.588;10.836;2023-05-10T07:38:45;2.95;;;1.20;;
56141;SDS011;42018;48.588;10.836;2023-05-10T07:41:31;2.78;;;1.20;;
56141;SDS011;42018;48.588;10.836;2023-05-10T07:44:19;2.40;;;1.25;;
56141;SDS011;42018;48.588;10.836;2023-05-10T07:50:47;2.80;;;1.30;;
56141;SDS011;42018;48.588;10.836;2023-05-10T07:53:32;2.53;;;1.05;;
56141;SDS011;42018;48.588;10.836;2023-05-10T07:56:20;2.30;;;1.10;;
56141;SDS011;42018;48.588;10.836;2023-05-10T07:59:14;2.28;;;1.20;;
56141;SDS011;42018;48.588;10.836;2023-05-10T08:02:00;3.38;;;1.52;;
56141;SDS011;42018;48.588;10.836;2023-05-10T08:04:45;4.68;;;1.30;;
56141;SDS011;42018;48.588;10.836;2023-05-10T08:07:31;2.28;;;1.13;;
56141;SDS011;42018;48.588;10.836;2023-05-10T08:10:17;3.30;;;1.20;;
56141;SDS011;42018;48.588;10.836;2023-05-10T08:13:02;3.10;;;1.20;;
56141;SDS011;42018;48.588;10.836;2023-05-10T08:15:48;3.00;;;1.10;;
56141;SDS011;42018;48.588;10.836;2023-05-10T08:18:32;3.15;;;1.20;;
56141;SDS011;42018;48.588;10.836;2023-05-10T08:21:18;3.22;;;1.40;;
56141;SDS011;42018;48.588;10.836;2023-05-10T08:24:03;2.47;;;1.13;;
56141;SDS011;42018;48.588;10.836;2023-05-10T08:26:49;1.67;;;0.95;;
56141;SDS011;42018;48.588;10.836;2023-05-10T08:29:35;2.67;;;1.10;;
56141;SDS011;42018;48.588;10.836;2023-05-10T08:32:20;2.42;;;1.10;;
56141;SDS011;42018;48.588;10.836;2023-05-10T08:35:06;2.17;;;1.00;;
56141;SDS011;42018;48.588;10.836;2023-05-10T08:37:54;5.88;;;1.35;;
56141;SDS011;42018;48.588;10.836;2023-05-10T08:40:43;3.15;;;1.08;;
56141;SDS011;42018;48.588;10.836;2023-05-10T08:43:30;2.17;;;1.08;;
56141;SDS011;42018;48.588;10.836;2023-05-10T08:46:18;2.05;;;1.20;;
56141;SDS011;42018;48.588;10.836;2023-05-10T08:49:06;2.47;;;1.00;;
56141;SDS011;42018;48.588;10.836;2023-05-10T08:51:55;2.50;;;1.17;;
56141;SDS011;42018;48.588;10.836;2023-05-10T08:54:42;2.30;;;1.00;;
56141;SDS011;42018;48.588;10.836;2023-05-10T08:57:28;2.20;;;1.08;;
56141;SDS011;42018;48.588;10.836;2023-05-10T09:00:14;3.25;;;1.00;;
56141;SDS011;42018;48.588;10.836;2023-05-10T09:03:01;1.77;;;1.00;;
56141;SDS011;42018;48.588;10.836;2023-05-10T09:05:48;2.95;;;1.10;;
56141;SDS011;42018;48.588;10.836;2023-05-10T09:08:34;2.70;;;1.02;;
56141;SDS011;42018;48.588;10.836;2023-05-10T09:11:21;2.85;;;0.93;;
56141;SDS011;42018;48.588;10.836;2023-05-10T09:14:07;2.30;;;1.15;;
56141;SDS011;42018;48.588;10.836;2023-05-10T09:16:54;2.38;;;0.93;;
56141;SDS011;42018;48.588;10.836;2023-05-10T09:19:40;3.70;;;1.02;;
56141;SDS011;42018;48.588;10.836;2023-05-10T09:22:25;1.42;;;0.85;;
56141;SDS011;42018;48.588;10.836;2023-05-10T09:25:12;3.13;;;1.13;;
56141;SDS011;42018;48.588;10.836;2023-05-10T09:27:59;4.45;;;1.20;;
56141;SDS011;42018;48.588;10.836;2023-05-10T09:30:45;3.10;;;1.10;;
56141;SDS011;42018;48.588;10.836;2023-05-10T09:33:45;3.45;;;1.23;;
56141;SDS011;42018;48.588;10.836;2023-05-10T09:36:31;1.67;;;0.98;;
56141;SDS011;42018;48.588;10.836;2023-05-10T09:39:16;4.00;;;1.17;;
56141;SDS011;42018;48.588;10.836;2023-05-10T09:42:03;2.15;;;1.00;;
56141;SDS011;42018;48.588;10.836;2023-05-10T09:44:50;2.33;;;1.00;;
56141;SDS011;42018;48.588;10.836;2023-05-10T09:47:35;2.72;;;1.27;;
56141;SDS011;42018;48.588;10.836;2023-05-10T09:50:21;3.55;;;1.20;;
56141;SDS011;42018;48.588;10.836;2023-05-10T09:53:07;3.83;;;1.50;;
56141;SDS011;42018;48.588;10.836;2023-05-10T09:55:52;4.30;;;1.27;;
56141;SDS011;42018;48.588;10.836;2023-05-10T09:58:38;4.72;;;2.00;;
56141;SDS011;42018;48.588;10.836;2023-05-10T10:01:25;3.83;;;1.23;;
56141;SDS011;42018;48.588;10.836;2023-05-10T10:04:11;2.80;;;1.02;;
56141;SDS011;42018;48.588;10.836;2023-05-10T10:07:03;2.97;;;1.48;;
56141;SDS011;42018;48.588;10.836;2023-05-10T10:09:50;5.57;;;1.45;;
56141;SDS011;42018;48.588;10.836;2023-05-10T10:12:35;3.22;;;1.08;;
56141;SDS011;42018;48.588;10.836;2023-05-10T10:15:21;3.70;;;1.20;;
56141;SDS011;42018;48.588;10.836;2023-05-10T10:18:07;1.95;;;1.00;;
56141;SDS011;42018;48.588;10.836;2023-05-10T10:21:00;3.08;;;1.10;;
56141;SDS011;42018;48.588;10.836;2023-05-10T10:23:49;3.80;;;1.83;;
56141;SDS011;42018;48.588;10.836;2023-05-10T10:26:36;4.47;;;1.27;;
56141;SDS011;42018;48.588;10.836;2023-05-10T10:29:33;2.88;;;1.30;;
56141;SDS011;42018;48.588;10.836;2023-05-10T10:35:47;3.00;;;1.20;;
56141;SDS011;42018;48.588;10.836;2023-05-10T10:38:37;1.85;;;1.00;;
56141;SDS011;42018;48.588;10.836;2023-05-10T10:42:01;2.28;;;0.98;;
56141;SDS011;42018;48.588;10.836;2023-05-10T10:44:48;2.17;;;1.10;;
56141;SDS011;42018;48.588;10.836;2023-05-10T10:47:33;3.08;;;1.17;;
56141;SDS011;42018;48.588;10.836;2023-05-10T10:50:19;3.67;;;1.00;;
56141;SDS011;42018;48.588;10.836;2023-05-10T10:53:11;2.40;;;1.10;;
56141;SDS011;42018;48.588;10.836;2023-05-10T10:56:10;2.25;;;1.20;;
56141;SDS011;42018;48.588;10.836;2023-05-10T10:58:58;2.60;;;1.17;;
56141;SDS011;42018;48.588;10.836;2023-05-10T11:01:52;2.22;;;1.10;;
56141;SDS011;42018;48.588;10.836;2023-05-10T11:04:41;2.70;;;1.20;;
56141;SDS011;42018;48.588;10.836;2023-05-10T11:07:28;2.78;;;1.35;;
56141;SDS011;42018;48.588;10.836;2023-05-10T11:13:38;3.38;;;1.30;;
56141;SDS011;42018;48.588;10.836;2023-05-10T11:16:24;2.53;;;1.10;;
56141;SDS011;42018;48.588;10.836;2023-05-10T11:19:16;2.42;;;1.10;;
56141;SDS011;42018;48.588;10.836;2023-05-10T11:24:58;1.38;;;0.80;;
56141;SDS011;42018;48.588;10.836;2023-05-10T11:27:53;1.67;;;0.90;;
56141;SDS011;42018;48.588;10.836;2023-05-10T11:30:38;1.92;;;0.90;;
56141;SDS011;42018;48.588;10.836;2023-05-10T11:52:23;0.95;;;0.70;;
56141;SDS011;42018;48.588;10.836;2023-05-10T11:55:09;1.20;;;0.70;;
56141;SDS011;42018;48.588;10.836;2023-05-10T12:13:21;1.55;;;0.80;;
56141;SDS011;42018;48.588;10.836;2023-05-10T12:22:49;1.92;;;1.00;;
56141;SDS011;42018;48.588;10.836;2023-05-10T12:25:36;2.78;;;1.05;;
56141;SDS011;42018;48.588;10.836;2023-05-10T12:28:22;1.75;;;0.90;;
56141;SDS011;42018;48.588;10.836;2023-05-10T12:31:08;5.43;;;0.80;;
56141;SDS011;42018;48.588;10.836;2023-05-10T12:33:53;2.08;;;0.80;;
56141;SDS011;42018;48.588;10.836;2023-05-10T12:36:38;2.13;;;0.90;;
56141;SDS011;42018;48.588;10.836;2023-05-10T12:39:24;2.00;;;0.82;;
56141;SDS011;42018;48.588;10.836;2023-05-10T12:42:10;1.13;;;0.73;;
56141;SDS011;42018;48.588;10.836;2023-05-10T12:44:55;2.00;;;0.90;;
56141;SDS011;42018;48.588;10.836;2023-05-10T12:47:41;1.98;;;0.90;;
56141;SDS011;42018;48.588;10.836;2023-05-10T12:50:27;1.65;;;0.90;;
56141;SDS011;42018;48.588;10.836;2023-05-10T12:53:13;1.15;;;0.73;;
56141;SDS011;42018;48.588;10.836;2023-05-10T12:56:00;1.35;;;0.90;;
56141;SDS011;42018;48.588;10.836;2023-05-10T12:58:45;3.05;;;1.00;;
56141;SDS011;42018;48.588;10.836;2023-05-10T13:01:32;3.25;;;1.00;;
56141;SDS011;42018;48.588;10.836;2023-05-10T13:04:18;2.00;;;1.00;;
56141;SDS011;42018;48.588;10.836;2023-05-10T13:07:03;2.63;;;1.10;;
56141;SDS011;42018;48.588;10.836;2023-05-10T13:09:49;2.35;;;1.15;;
56141;SDS011;42018;48.588;10.836;2023-05-10T13:12:34;2.53;;;1.20;;
56141;SDS011;42018;48.588;10.836;2023-05-10T13:15:19;3.67;;;1.40;;
56141;SDS011;42018;48.588;10.836;2023-05-10T13:18:05;2.70;;;1.50;;
56141;SDS011;42018;48.588;10.836;2023-05-10T13:20:50;3.30;;;1.40;;
56141;SDS011;42018;48.588;10.836;2023-05-10T13:23:35;3.42;;;1.40;;
56141;SDS011;42018;48.588;10.836;2023-05-10T13:26:21;4.25;;;1.33;;
56141;SDS011;42018;48.588;10.836;2023-05-10T13:29:06;3.33;;;1.40;;
56141;SDS011;42018;48.588;10.836;2023-05-10T13:31:52;2.42;;;1.20;;
56141;SDS011;42018;48.588;10.836;2023-05-10T13:34:38;2.17;;;1.20;;
56141;SDS011;42018;48.588;10.836;2023-05-10T13:37:23;3.67;;;1.30;;
56141;SDS011;42018;48.588;10.836;2023-05-10T13:40:08;1.75;;;1.00;;
56141;SDS011;42018;48.588;10.836;2023-05-10T13:42:54;1.83;;;1.10;;
56141;SDS011;42018;48.588;10.836;2023-05-10T13:45:39;4.20;;;1.38;;
56141;SDS011;42018;48.588;10.836;2023-05-10T13:48:25;2.58;;;1.30;;
56141;SDS011;42018;48.588;10.836;2023-05-10T13:51:10;2.50;;;1.27;;
56141;SDS011;42018;48.588;10.836;2023-05-10T13:53:55;2.00;;;1.10;;
56141;SDS011;42018;48.588;10.836;2023-05-10T13:56:41;3.10;;;1.40;;
56141;SDS011;42018;48.588;10.836;2023-05-10T13:59:28;3.33;;;1.30;;
56141;SDS011;42018;48.588;10.836;2023-05-10T14:02:14;2.53;;;1.20;;
56141;SDS011;42018;48.588;10.836;2023-05-10T14:04:59;2.78;;;1.30;;
56141;SDS011;42018;48.588;10.836;2023-05-10T14:07:45;1.67;;;1.00;;
56141;SDS011;42018;48.588;10.836;2023-05-10T14:10:30;2.30;;;1.10;;
56141;SDS011;42018;48.588;10.836;2023-05-10T14:13:15;2.22;;;1.10;;
56141;SDS011;42018;48.588;10.836;2023-05-10T14:16:01;1.85;;;1.05;;
56141;SDS011;42018;48.588;10.836;2023-05-10T14:18:46;2.45;;;1.20;;
56141;SDS011;42018;48.588;10.836;2023-05-10T14:21:32;2.58;;;1.23;;
56141;SDS011;42018;48.588;10.836;2023-05-10T14:24:18;1.63;;;1.00;;
56141;SDS011;42018;48.588;10.836;2023-05-10T14:27:03;3.30;;;1.00;;
56141;SDS011;42018;48.588;10.836;2023-05-10T14:29:48;2.88;;;0.98;;
56141;SDS011;42018;48.588;10.836;2023-05-10T14:32:34;2.67;;;0.90;;
56141;SDS011;42018;48.588;10.836;2023-05-10T14:35:21;1.90;;;1.00;;
56141;SDS011;42018;48.588;10.836;2023-05-10T14:38:06;1.83;;;0.88;;
56141;SDS011;42018;48.588;10.836;2023-05-10T14:40:52;1.75;;;0.90;;
56141;SDS011;42018;48.588;10.836;2023-05-10T14:43:37;3.83;;;1.02;;
56141;SDS011;42018;48.588;10.836;2023-05-10T14:46:23;1.45;;;0.73;;
56141;SDS011;42018;48.588;10.836;2023-05-10T14:49:08;1.63;;;0.80;;
56141;SDS011;42018;48.588;10.836;2023-05-10T14:51:53;1.10;;;0.77;;
56141;SDS011;42018;48.588;10.836;2023-05-10T14:54:39;2.30;;;1.10;;
56141;SDS011;42018;48.588;10.836;2023-05-10T14:57:25;2.30;;;1.00;;
56141;SDS011;42018;48.588;10.836;2023-05-10T15:00:10;2.97;;;1.27;;
56141;SDS011;42018;48.588;10.836;2023-05-10T15:02:56;2.40;;;1.00;;
56141;SDS011;42018;48.588;10.836;2023-05-10T15:05:42;1.45;;;0.95;;
56141;SDS011;42018;48.588;10.836;2023-05-10T15:08:27;1.88;;;1.10;;
56141;SDS011;42018;48.588;10.836;2023-05-10T15:11:13;1.73;;;1.00;;
56141;SDS011;42018;48.588;10.836;2023-05-10T15:13:58;2.20;;;1.00;;
56141;SDS011;42018;48.588;10.836;2023-05-10T15:16:43;1.35;;;0.90;;
56141;SDS011;42018;48.588;10.836;2023-05-10T15:19:29;1.20;;;0.90;;
56141;SDS011;42018;48.588;10.836;2023-05-10T15:22:15;3.35;;;1.13;;
56141;SDS011;42018;48.588;10.836;2023-05-10T15:25:00;1.58;;;1.00;;
56141;SDS011;42018;48.588;10.836;2023-05-10T15:27:46;1.90;;;1.00;;
56141;SDS011;42018;48.588;10.836;2023-05-10T15:30:30;2.50;;;1.00;;
56141;SDS011;42018;48.588;10.836;2023-05-10T15:33:16;1.75;;;0.90;;
56141;SDS011;42018;48.588;10.836;2023-05-10T15:36:01;1.67;;;0.90;;
56141;SDS011;42018;48.588;10.836;2023-05-10T15:38:48;2.40;;;1.10;;
56141;SDS011;42018;48.588;10.836;2023-05-10T15:41:34;1.40;;;0.90;;
56141;SDS011;42018;48.588;10.836;2023-05-10T15:44:19;2.50;;;1.00;;
56141;SDS011;42018;48.588;10.836;2023-05-10T15:47:05;1.30;;;0.90;;
56141;SDS011;42018;48.588;10.836;2023-05-10T15:49:50;2.50;;;1.00;;
56141;SDS011;42018;48.588;10.836;2023-05-10T15:52:36;1.35;;;0.90;;
56141;SDS011;42018;48.588;10.836;2023-05-10T15:55:21;3.85;;;1.00;;
56141;SDS011;42018;48.588;10.836;2023-05-10T15:58:07;3.80;;;2.17;;
56141;SDS011;42018;48.588;10.836;2023-05-10T16:00:52;2.50;;;1.30;;
56141;SDS011;42018;48.588;10.836;2023-05-10T16:03:39;2.50;;;1.27;;
56141;SDS011;42018;48.588;10.836;2023-05-10T16:06:24;2.33;;;1.10;;
56141;SDS011;42018;48.588;10.836;2023-05-10T16:09:10;3.17;;;1.30;;
56141;SDS011;42018;48.588;10.836;2023-05-10T16:11:55;2.78;;;1.23;;
56141;SDS011;42018;48.588;10.836;2023-05-10T16:14:40;2.95;;;1.40;;
56141;SDS011;42018;48.588;10.836;2023-05-10T16:17:26;3.15;;;1.30;;
56141;SDS011;42018;48.588;10.836;2023-05-10T16:20:11;3.70;;;1.50;;
56141;SDS011;42018;48.588;10.836;2023-05-10T16:22:58;3.88;;;1.40;;
56141;SDS011;42018;48.588;10.836;2023-05-10T16:25:47;3.45;;;1.27;;
56141;SDS011;42018;48.588;10.836;2023-05-10T16:28:32;2.17;;;1.38;;
56141;SDS011;42018;48.588;10.836;2023-05-10T16:31:17;4.38;;;1.70;;
56141;SDS011;42018;48.588;10.836;2023-05-10T16:34:03;2.22;;;1.25;;
56141;SDS011;42018;48.588;10.836;2023-05-10T16:36:49;4.85;;;1.40;;
56141;SDS011;42018;48.588;10.836;2023-05-10T16:39:35;4.35;;;1.40;;
56141;SDS011;42018;48.588;10.836;2023-05-10T16:42:21;3.65;;;1.40;;
56141;SDS011;42018;48.588;10.836;2023-05-10T16:45:08;2.65;;;1.30;;
56141;SDS011;42018;48.588;10.836;2023-05-10T16:47:53;4.28;;;1.50;;
56141;SDS011;42018;48.588;10.836;2023-05-10T16:50:42;2.42;;;1.25;;
56141;SDS011;42018;48.588;10.836;2023-05-10T16:53:28;2.80;;;1.30;;
56141;SDS011;42018;48.588;10.836;2023-05-10T16:56:14;3.53;;;1.60;;
56141;SDS011;42018;48.588;10.836;2023-05-10T16:59:02;4.80;;;1.60;;
56141;SDS011;42018;48.588;10.836;2023-05-10T17:01:47;2.85;;;1.50;;
56141;SDS011;42018;48.588;10.836;2023-05-10T17:04:33;3.42;;;1.70;;
56141;SDS011;42018;48.588;10.836;2023-05-10T17:07:18;3.47;;;1.40;;
56141;SDS011;42018;48.588;10.836;2023-05-10T17:10:04;5.47;;;1.80;;
56141;SDS011;42018;48.588;10.836;2023-05-10T17:12:50;3.70;;;1.85;;
56141;SDS011;42018;48.588;10.836;2023-05-10T17:15:35;3.40;;;1.70;;
56141;SDS011;42018;48.588;10.836;2023-05-10T17:18:21;2.83;;;1.50;;
56141;SDS011;42018;48.588;10.836;2023-05-10T17:21:07;4.75;;;1.70;;
56141;SDS011;42018;48.588;10.836;2023-05-10T17:23:53;4.43;;;1.70;;
56141;SDS011;42018;48.588;10.836;2023-05-10T17:26:38;4.35;;;1.60;;
56141;SDS011;42018;48.588;10.836;2023-05-10T17:29:24;3.45;;;1.55;;
56141;SDS011;42018;48.588;10.836;2023-05-10T17:32:11;3.63;;;1.50;;
56141;SDS011;42018;48.588;10.836;2023-05-10T17:34:56;3.10;;;1.50;;
56141;SDS011;42018;48.588;10.836;2023-05-10T17:37:42;2.58;;;1.42;;
56141;SDS011;42018;48.588;10.836;2023-05-10T17:40:28;2.90;;;1.42;;
56141;SDS011;42018;48.588;10.836;2023-05-10T17:43:14;3.58;;;1.60;;
56141;SDS011;42018;48.588;10.836;2023-05-10T17:45:59;4.03;;;1.60;;
56141;SDS011;42018;48.588;10.836;2023-05-10T17:48:45;2.28;;;1.27;;
56141;SDS011;42018;48.588;10.836;2023-05-10T17:51:30;3.33;;;1.58;;
56141;SDS011;42018;48.588;10.836;2023-05-10T17:54:16;3.55;;;1.60;;
56141;SDS011;42018;48.588;10.836;2023-05-10T17:57:01;2.90;;;1.45;;
56141;SDS011;42018;48.588;10.836;2023-05-10T17:59:47;3.75;;;1.50;;
56141;SDS011;42018;48.588;10.836;2023-05-10T18:02:36;3.25;;;1.60;;
56141;SDS011;42018;48.588;10.836;2023-05-10T18:05:21;3.50;;;1.60;;
56141;SDS011;42018;48.588;10.836;2023-05-10T18:08:07;4.45;;;1.70;;
56141;SDS011;42018;48.588;10.836;2023-05-10T18:10:53;2.67;;;1.42;;
56141;SDS011;42018;48.588;10.836;2023-05-10T18:13:39;3.65;;;1.55;;
56141;SDS011;42018;48.588;10.836;2023-05-10T18:16:24;2.88;;;1.60;;
56141;SDS011;42018;48.588;10.836;2023-05-10T18:19:09;3.75;;;1.63;;
56141;SDS011;42018;48.588;10.836;2023-05-10T18:21:55;4.97;;;1.98;;
56141;SDS011;42018;48.588;10.836;2023-05-10T18:24:40;2.95;;;1.58;;
56141;SDS011;42018;48.588;10.836;2023-05-10T18:27:26;3.10;;;1.50;;
56141;SDS011;42018;48.588;10.836;2023-05-10T18:30:12;3.60;;;1.67;;
56141;SDS011;42018;48.588;10.836;2023-05-10T18:32:58;4.13;;;1.63;;
56141;SDS011;42018;48.588;10.836;2023-05-10T18:35:43;4.47;;;1.58;;
56141;SDS011;42018;48.588;10.836;2023-05-10T18:38:29;3.50;;;1.50;;
56141;SDS011;42018;48.588;10.836;2023-05-10T18:41:14;4.65;;;1.60;;
56141;SDS011;42018;48.588;10.836;2023-05-10T18:44:00;3.42;;;1.40;;
56141;SDS011;42018;48.588;10.836;2023-05-10T18:46:45;4.38;;;1.77;;
56141;SDS011;42018;48.588;10.836;2023-05-10T18:49:31;6.57;;;1.80;;
56141;SDS011;42018;48.588;10.836;2023-05-10T18:52:16;3.85;;;1.67;;
56141;SDS011;42018;48.588;10.836;2023-05-10T18:55:02;3.50;;;1.70;;
56141;SDS011;42018;48.588;10.836;2023-05-10T18:57:48;3.92;;;1.58;;
56141;SDS011;42018;48.588;10.836;2023-05-10T19:00:33;3.20;;;1.40;;
56141;SDS011;42018;48.588;10.836;2023-05-10T19:03:19;3.95;;;1.80;;
56141;SDS011;42018;48.588;10.836;2023-05-10T19:06:05;4.03;;;2.00;;
56141;SDS011;42018;48.588;10.836;2023-05-10T19:08:50;4.28;;;1.70;;
56141;SDS011;42018;48.588;10.836;2023-05-10T19:11:36;5.38;;;2.10;;
56141;SDS011;42018;48.588;10.836;2023-05-10T19:14:21;4.80;;;2.03;;
56141;SDS011;42018;48.588;10.836;2023-05-10T19:17:08;4.25;;;1.80;;
56141;SDS011;42018;48.588;10.836;2023-05-10T19:19:54;4.32;;;2.10;;
56141;SDS011;42018;48.588;10.836;2023-05-10T19:22:39;3.53;;;1.90;;
56141;SDS011;42018;48.588;10.836;2023-05-10T19:25:25;3.38;;;1.50;;
56141;SDS011;42018;48.588;10.836;2023-05-10T19:28:13;3.80;;;1.58;;
56141;SDS011;42018;48.588;10.836;2023-05-10T19:30:59;5.20;;;1.70;;
56141;SDS011;42018;48.588;10.836;2023-05-10T19:33:44;3.08;;;1.58;;
56141;SDS011;42018;48.588;10.836;2023-05-10T19:36:29;3.45;;;1.60;;
56141;SDS011;42018;48.588;10.836;2023-05-10T19:39:15;5.60;;;1.95;;
56141;SDS011;42018;48.588;10.836;2023-05-10T19:42:00;4.20;;;1.73;;
56141;SDS011;42018;48.588;10.836;2023-05-10T19:44:46;3.35;;;1.38;;
56141;SDS011;42018;48.588;10.836;2023-05-10T19:47:32;3.28;;;1.58;;
56141;SDS011;42018;48.588;10.836;2023-05-10T19:50:18;3.85;;;1.55;;
56141;SDS011;42018;48.588;10.836;2023-05-10T19:53:03;3.30;;;1.50;;
56141;SDS011;42018;48.588;10.836;2023-05-10T19:55:49;2.50;;;1.30;;
56141;SDS011;42018;48.588;10.836;2023-05-10T19:58:34;2.88;;;1.38;;
56141;SDS011;42018;48.588;10.836;2023-05-10T20:01:20;2.70;;;1.40;;
56141;SDS011;42018;48.588;10.836;2023-05-10T20:04:05;3.47;;;1.60;;